sensor_id;sensor_type;location;lat;lon;timestamp;P1;durP1;ratioP1;P2;durP2;ratioP2
1753;SDS011;58380;48.312;9.246;2022-07-26T06:56:56;3.42;;;1.40;;
1753;SDS011;58380;48.312;9.246;2022-07-26T06:59:24;3.60;;;1.42;;
1753;SDS011;58380;48.312;9.246;2022-07-26T07:01:53;5.35;;;1.52;;
1753;SDS011;58380;48.312;9.246;2022-07-26T07:04:21;3.80;;;1.27;;
1753;SDS011;58380;48.312;9.246;2022-07-26T07:06:50;2.88;;;1.13;;
1753;SDS011;58380;48.312;9.246;2022-07-26T07:09:19;3.67;;;1.40;;
1753;SDS011;58380;48.312;9.246;2022-07-26T07:11:48;4.30;;;1.23;;
1753;SDS011;58380;48.312;9.246;2022-07-26T07:14:19;6.63;;;1.48;;
1753;SDS011;58380;48.312;9.246;2022-07-26T07:16:48;3.10;;;1.20;;
1753;SDS011;58380;48.312;9.246;2022-07-26T07:19:17;2.15;;;1.40;;
1753;SDS011;58380;48.312;9.246;2022-07-26T07:21:45;2.88;;;1.25;;
1753;SDS011;58380;48.312;9.246;2022-07-26T07:24:14;4.60;;;1.65;;
1753;SDS011;58380;48.312;9.246;2022-07-26T07:26:44;2.10;;;1.40;;
1753;SDS011;58380;48.312;9.246;2022-07-26T07:29:13;4.32;;;1.85;;
1753;SDS011;58380;48.312;9.246;2022-07-26T07:31:47;5.32;;;1.60;;
1753;SDS011;58380;48.312;9.246;2022-07-26T07:34:16;3.00;;;1.60;;
1753;SDS011;58380;48.312;9.246;2022-07-26T07:36:46;3.63;;;1.98;;
1753;SDS011;58380;48.312;9.246;2022-07-26T07:39:15;4.03;;;1.77;;
1753;SDS011;58380;48.312;9.246;2022-07-26T07:41:47;5.20;;;1.85;;
1753;SDS011;58380;48.312;9.246;2022-07-26T07:44:16;6.35;;;2.42;;
1753;SDS011;58380;48.312;9.246;2022-07-26T07:46:47;4.75;;;2.08;;
1753;SDS011;58380;48.312;9.246;2022-07-26T07:49:16;3.85;;;1.90;;
1753;SDS011;58380;48.312;9.246;2022-07-26T07:51:46;5.57;;;2.13;;
1753;SDS011;58380;48.312;9.246;2022-07-26T07:54:14;7.13;;;1.80;;
1753;SDS011;58380;48.312;9.246;2022-07-26T07:56:44;4.35;;;2.00;;
1753;SDS011;58380;48.312;9.246;2022-07-26T07:59:13;7.07;;;1.90;;
1753;SDS011;58380;48.312;9.246;2022-07-26T08:01:42;3.03;;;1.85;;
1753;SDS011;58380;48.312;9.246;2022-07-26T08:04:16;5.55;;;1.95;;
1753;SDS011;58380;48.312;9.246;2022-07-26T08:06:45;4.57;;;1.90;;
1753;SDS011;58380;48.312;9.246;2022-07-26T08:09:13;3.17;;;1.70;;
1753;SDS011;58380;48.312;9.246;2022-07-26T08:11:42;4.35;;;1.85;;
1753;SDS011;58380;48.312;9.246;2022-07-26T08:14:11;4.82;;;2.25;;
1753;SDS011;58380;48.312;9.246;2022-07-26T08:16:45;4.35;;;2.03;;
1753;SDS011;58380;48.312;9.246;2022-07-26T08:19:16;3.25;;;1.70;;
1753;SDS011;58380;48.312;9.246;2022-07-26T08:21:45;9.10;;;2.00;;
1753;SDS011;58380;48.312;9.246;2022-07-26T08:24:14;3.83;;;1.85;;
1753;SDS011;58380;48.312;9.246;2022-07-26T08:26:42;4.07;;;1.80;;
1753;SDS011;58380;48.312;9.246;2022-07-26T08:29:11;6.30;;;1.75;;
1753;SDS011;58380;48.312;9.246;2022-07-26T08:31:40;5.07;;;1.67;;
1753;SDS011;58380;48.312;9.246;2022-07-26T08:34:08;3.88;;;1.80;;
1753;SDS011;58380;48.312;9.246;2022-07-26T08:36:39;5.32;;;2.00;;
1753;SDS011;58380;48.312;9.246;2022-07-26T08:39:08;5.93;;;1.88;;
1753;SDS011;58380;48.312;9.246;2022-07-26T08:41:37;4.75;;;1.75;;
1753;SDS011;58380;48.312;9.246;2022-07-26T08:44:07;5.70;;;1.80;;
1753;SDS011;58380;48.312;9.246;2022-07-26T08:46:38;4.45;;;1.20;;
1753;SDS011;58380;48.312;9.246;2022-07-26T08:49:10;7.25;;;1.60;;
1753;SDS011;58380;48.312;9.246;2022-07-26T08:51:43;2.75;;;1.38;;
1753;SDS011;58380;48.312;9.246;2022-07-26T08:54:12;2.85;;;1.20;;
1753;SDS011;58380;48.312;9.246;2022-07-26T08:56:48;4.32;;;1.17;;
1753;SDS011;58380;48.312;9.246;2022-07-26T08:59:20;2.05;;;1.10;;
1753;SDS011;58380;48.312;9.246;2022-07-26T09:01:55;2.40;;;1.10;;
1753;SDS011;58380;48.312;9.246;2022-07-26T09:04:30;2.47;;;1.15;;
1753;SDS011;58380;48.312;9.246;2022-07-26T09:07:06;3.83;;;1.27;;
1753;SDS011;58380;48.312;9.246;2022-07-26T09:09:38;5.95;;;1.05;;
1753;SDS011;58380;48.312;9.246;2022-07-26T09:14:54;2.15;;;1.10;;
1753;SDS011;58380;48.312;9.246;2022-07-26T09:17:24;3.22;;;1.08;;
1753;SDS011;58380;48.312;9.246;2022-07-26T09:20:06;4.57;;;1.30;;
1753;SDS011;58380;48.312;9.246;2022-07-26T09:22:55;3.97;;;1.20;;
1753;SDS011;58380;48.312;9.246;2022-07-26T09:25:28;2.85;;;0.80;;
1753;SDS011;58380;48.312;9.246;2022-07-26T09:27:59;3.33;;;1.10;;
1753;SDS011;58380;48.312;9.246;2022-07-26T09:30:33;3.08;;;1.10;;
1753;SDS011;58380;48.312;9.246;2022-07-26T09:33:02;2.20;;;1.08;;
1753;SDS011;58380;48.312;9.246;2022-07-26T09:35:34;3.03;;;1.00;;
1753;SDS011;58380;48.312;9.246;2022-07-26T09:38:16;3.85;;;1.10;;
1753;SDS011;58380;48.312;9.246;2022-07-26T09:40:44;2.20;;;0.90;;
1753;SDS011;58380;48.312;9.246;2022-07-26T09:43:13;8.80;;;1.20;;
1753;SDS011;58380;48.312;9.246;2022-07-26T09:45:42;3.20;;;1.10;;
1753;SDS011;58380;48.312;9.246;2022-07-26T09:48:10;3.75;;;1.25;;
1753;SDS011;58380;48.312;9.246;2022-07-26T09:50:44;11.80;;;1.48;;
1753;SDS011;58380;48.312;9.246;2022-07-26T09:53:17;2.63;;;1.00;;
1753;SDS011;58380;48.312;9.246;2022-07-26T09:55:53;2.60;;;0.90;;
1753;SDS011;58380;48.312;9.246;2022-07-26T09:58:23;2.35;;;1.00;;
1753;SDS011;58380;48.312;9.246;2022-07-26T10:00:53;1.42;;;0.90;;
1753;SDS011;58380;48.312;9.246;2022-07-26T10:03:22;3.00;;;0.85;;
1753;SDS011;58380;48.312;9.246;2022-07-26T10:05:50;2.53;;;1.00;;
1753;SDS011;58380;48.312;9.246;2022-07-26T10:08:22;2.75;;;1.00;;
1753;SDS011;58380;48.312;9.246;2022-07-26T10:10:52;1.95;;;1.00;;
1753;SDS011;58380;48.312;9.246;2022-07-26T10:13:28;2.40;;;1.13;;
1753;SDS011;58380;48.312;9.246;2022-07-26T10:15:57;2.47;;;1.10;;
1753;SDS011;58380;48.312;9.246;2022-07-26T10:18:40;2.17;;;1.08;;
1753;SDS011;58380;48.312;9.246;2022-07-26T10:21:18;2.30;;;1.05;;
1753;SDS011;58380;48.312;9.246;2022-07-26T10:23:54;6.35;;;1.20;;
1753;SDS011;58380;48.312;9.246;2022-07-26T10:26:38;2.08;;;0.70;;
1753;SDS011;58380;48.312;9.246;2022-07-26T10:29:23;1.77;;;1.00;;
1753;SDS011;58380;48.312;9.246;2022-07-26T10:34:45;4.95;;;0.90;;
1753;SDS011;58380;48.312;9.246;2022-07-26T10:37:20;2.42;;;1.40;;
1753;SDS011;58380;48.312;9.246;2022-07-26T10:42:57;2.55;;;0.93;;
1753;SDS011;58380;48.312;9.246;2022-07-26T10:45:35;2.40;;;1.00;;
1753;SDS011;58380;48.312;9.246;2022-07-26T10:48:12;3.30;;;0.60;;
1753;SDS011;58380;48.312;9.246;2022-07-26T10:50:43;2.95;;;1.10;;
1753;SDS011;58380;48.312;9.246;2022-07-26T10:53:16;2.47;;;0.70;;
1753;SDS011;58380;48.312;9.246;2022-07-26T10:55:50;3.58;;;0.98;;
1753;SDS011;58380;48.312;9.246;2022-07-26T10:58:22;3.97;;;0.90;;
1753;SDS011;58380;48.312;9.246;2022-07-26T11:00:53;3.17;;;0.85;;
1753;SDS011;58380;48.312;9.246;2022-07-26T11:03:36;2.58;;;1.08;;
1753;SDS011;58380;48.312;9.246;2022-07-26T11:06:10;1.83;;;0.85;;
1753;SDS011;58380;48.312;9.246;2022-07-26T11:08:41;2.55;;;1.00;;
1753;SDS011;58380;48.312;9.246;2022-07-26T11:11:25;3.03;;;0.80;;
1753;SDS011;58380;48.312;9.246;2022-07-26T11:14:03;4.15;;;0.90;;
1753;SDS011;58380;48.312;9.246;2022-07-26T11:16:37;5.25;;;0.80;;
1753;SDS011;58380;48.312;9.246;2022-07-26T11:19:10;1.75;;;0.70;;
1753;SDS011;58380;48.312;9.246;2022-07-26T11:21:41;1.75;;;0.80;;
1753;SDS011;58380;48.312;9.246;2022-07-26T11:24:13;4.80;;;0.93;;
1753;SDS011;58380;48.312;9.246;2022-07-26T11:26:45;3.45;;;1.00;;
1753;SDS011;58380;48.312;9.246;2022-07-26T11:29:14;3.28;;;0.85;;
1753;SDS011;58380;48.312;9.246;2022-07-26T11:31:54;2.75;;;0.82;;
1753;SDS011;58380;48.312;9.246;2022-07-26T11:34:23;1.92;;;0.80;;
1753;SDS011;58380;48.312;9.246;2022-07-26T11:36:59;3.63;;;0.82;;
1753;SDS011;58380;48.312;9.246;2022-07-26T11:39:31;2.95;;;0.82;;
1753;SDS011;58380;48.312;9.246;2022-07-26T11:42:06;2.28;;;0.70;;
1753;SDS011;58380;48.312;9.246;2022-07-26T11:44:37;3.47;;;0.70;;
1753;SDS011;58380;48.312;9.246;2022-07-26T11:47:12;2.83;;;0.90;;
1753;SDS011;58380;48.312;9.246;2022-07-26T11:49:44;2.95;;;0.95;;
1753;SDS011;58380;48.312;9.246;2022-07-26T11:52:13;1.48;;;0.70;;
1753;SDS011;58380;48.312;9.246;2022-07-26T11:54:47;3.58;;;1.05;;
1753;SDS011;58380;48.312;9.246;2022-07-26T11:57:26;4.93;;;1.00;;
1753;SDS011;58380;48.312;9.246;2022-07-26T12:00:02;4.35;;;0.63;;
1753;SDS011;58380;48.312;9.246;2022-07-26T12:02:38;3.92;;;0.80;;
1753;SDS011;58380;48.312;9.246;2022-07-26T12:05:11;3.45;;;0.98;;
1753;SDS011;58380;48.312;9.246;2022-07-26T12:07:53;1.30;;;0.60;;
1753;SDS011;58380;48.312;9.246;2022-07-26T12:10:24;5.20;;;0.93;;
1753;SDS011;58380;48.312;9.246;2022-07-26T12:13:09;3.40;;;0.70;;
1753;SDS011;58380;48.312;9.246;2022-07-26T12:15:43;4.40;;;0.70;;
1753;SDS011;58380;48.312;9.246;2022-07-26T12:18:22;2.42;;;0.75;;
1753;SDS011;58380;48.312;9.246;2022-07-26T12:20:56;2.90;;;0.88;;
1753;SDS011;58380;48.312;9.246;2022-07-26T12:23:40;2.22;;;0.63;;
1753;SDS011;58380;48.312;9.246;2022-07-26T12:26:22;2.15;;;0.82;;
1753;SDS011;58380;48.312;9.246;2022-07-26T12:29:00;2.90;;;1.05;;
1753;SDS011;58380;48.312;9.246;2022-07-26T12:31:42;2.75;;;0.60;;
1753;SDS011;58380;48.312;9.246;2022-07-26T12:34:10;5.78;;;0.80;;
1753;SDS011;58380;48.312;9.246;2022-07-26T12:36:39;1.75;;;0.80;;
1753;SDS011;58380;48.312;9.246;2022-07-26T12:39:18;3.47;;;0.90;;
1753;SDS011;58380;48.312;9.246;2022-07-26T12:41:53;3.90;;;0.70;;
1753;SDS011;58380;48.312;9.246;2022-07-26T12:44:32;2.65;;;0.80;;
1753;SDS011;58380;48.312;9.246;2022-07-26T12:47:04;2.78;;;0.70;;
1753;SDS011;58380;48.312;9.246;2022-07-26T12:49:55;7.38;;;1.30;;
1753;SDS011;58380;48.312;9.246;2022-07-26T12:52:24;4.50;;;0.98;;
1753;SDS011;58380;48.312;9.246;2022-07-26T12:54:53;3.05;;;0.80;;
1753;SDS011;58380;48.312;9.246;2022-07-26T12:57:23;2.97;;;0.70;;
1753;SDS011;58380;48.312;9.246;2022-07-26T13:02:48;1.40;;;0.50;;
1753;SDS011;58380;48.312;9.246;2022-07-26T13:05:18;1.63;;;0.88;;
1753;SDS011;58380;48.312;9.246;2022-07-26T13:07:47;1.13;;;0.70;;
1753;SDS011;58380;48.312;9.246;2022-07-26T13:10:16;1.70;;;0.60;;
1753;SDS011;58380;48.312;9.246;2022-07-26T13:12:45;2.60;;;0.88;;
1753;SDS011;58380;48.312;9.246;2022-07-26T13:15:13;3.15;;;0.90;;
1753;SDS011;58380;48.312;9.246;2022-07-26T13:17:44;1.02;;;0.68;;
1753;SDS011;58380;48.312;9.246;2022-07-26T13:20:13;3.20;;;0.70;;
1753;SDS011;58380;48.312;9.246;2022-07-26T13:22:41;2.13;;;0.80;;
1753;SDS011;58380;48.312;9.246;2022-07-26T13:25:10;3.45;;;0.85;;
1753;SDS011;58380;48.312;9.246;2022-07-26T13:27:38;3.05;;;0.80;;
1753;SDS011;58380;48.312;9.246;2022-07-26T13:30:08;2.00;;;0.70;;
1753;SDS011;58380;48.312;9.246;2022-07-26T13:32:38;1.92;;;0.80;;
1753;SDS011;58380;48.312;9.246;2022-07-26T13:35:09;1.83;;;0.60;;
1753;SDS011;58380;48.312;9.246;2022-07-26T13:37:37;3.88;;;0.77;;
1753;SDS011;58380;48.312;9.246;2022-07-26T13:40:06;3.17;;;0.65;;
1753;SDS011;58380;48.312;9.246;2022-07-26T13:42:36;2.58;;;0.75;;
1753;SDS011;58380;48.312;9.246;2022-07-26T13:45:06;2.70;;;0.70;;
1753;SDS011;58380;48.312;9.246;2022-07-26T13:47:36;2.42;;;0.80;;
1753;SDS011;58380;48.312;9.246;2022-07-26T13:50:05;1.45;;;0.70;;
1753;SDS011;58380;48.312;9.246;2022-07-26T13:52:37;2.25;;;0.80;;
1753;SDS011;58380;48.312;9.246;2022-07-26T13:55:06;1.77;;;0.70;;
1753;SDS011;58380;48.312;9.246;2022-07-26T13:57:35;3.25;;;0.80;;
1753;SDS011;58380;48.312;9.246;2022-07-26T14:00:04;1.65;;;0.82;;
1753;SDS011;58380;48.312;9.246;2022-07-26T14:02:34;1.63;;;0.80;;
1753;SDS011;58380;48.312;9.246;2022-07-26T14:05:03;1.08;;;0.52;;
1753;SDS011;58380;48.312;9.246;2022-07-26T14:07:35;1.20;;;0.65;;
1753;SDS011;58380;48.312;9.246;2022-07-26T14:10:07;3.25;;;0.68;;
1753;SDS011;58380;48.312;9.246;2022-07-26T14:12:36;0.98;;;0.50;;
1753;SDS011;58380;48.312;9.246;2022-07-26T14:15:05;4.15;;;0.65;;
1753;SDS011;58380;48.312;9.246;2022-07-26T14:17:35;7.20;;;1.10;;
1753;SDS011;58380;48.312;9.246;2022-07-26T14:20:05;1.30;;;0.60;;
1753;SDS011;58380;48.312;9.246;2022-07-26T14:22:37;1.60;;;0.70;;
1753;SDS011;58380;48.312;9.246;2022-07-26T14:25:06;1.77;;;0.60;;
1753;SDS011;58380;48.312;9.246;2022-07-26T14:27:35;4.90;;;1.00;;
1753;SDS011;58380;48.312;9.246;2022-07-26T14:30:04;3.85;;;0.60;;
1753;SDS011;58380;48.312;9.246;2022-07-26T14:32:36;0.85;;;0.45;;
1753;SDS011;58380;48.312;9.246;2022-07-26T14:35:05;1.33;;;0.70;;
1753;SDS011;58380;48.312;9.246;2022-07-26T14:37:38;2.03;;;0.68;;
1753;SDS011;58380;48.312;9.246;2022-07-26T14:40:08;3.80;;;0.80;;
1753;SDS011;58380;48.312;9.246;2022-07-26T14:42:38;2.80;;;0.68;;
1753;SDS011;58380;48.312;9.246;2022-07-26T14:45:07;2.35;;;0.70;;
1753;SDS011;58380;48.312;9.246;2022-07-26T14:47:38;2.67;;;0.70;;
1753;SDS011;58380;48.312;9.246;2022-07-26T14:50:07;1.60;;;0.70;;
1753;SDS011;58380;48.312;9.246;2022-07-26T14:52:42;2.55;;;0.77;;
1753;SDS011;58380;48.312;9.246;2022-07-26T14:55:14;2.42;;;0.77;;
1753;SDS011;58380;48.312;9.246;2022-07-26T14:57:43;1.13;;;0.50;;
1753;SDS011;58380;48.312;9.246;2022-07-26T15:00:14;0.75;;;0.50;;
1753;SDS011;58380;48.312;9.246;2022-07-26T15:02:45;1.83;;;0.60;;
1753;SDS011;58380;48.312;9.246;2022-07-26T15:05:15;2.08;;;0.75;;
1753;SDS011;58380;48.312;9.246;2022-07-26T15:07:47;8.27;;;0.98;;
1753;SDS011;58380;48.312;9.246;2022-07-26T15:10:16;0.98;;;0.50;;
1753;SDS011;58380;48.312;9.246;2022-07-26T15:12:53;2.00;;;0.70;;
1753;SDS011;58380;48.312;9.246;2022-07-26T15:15:22;2.92;;;0.80;;
1753;SDS011;58380;48.312;9.246;2022-07-26T15:17:50;1.25;;;0.80;;
1753;SDS011;58380;48.312;9.246;2022-07-26T15:20:20;1.35;;;0.70;;
1753;SDS011;58380;48.312;9.246;2022-07-26T15:22:52;2.67;;;0.70;;
1753;SDS011;58380;48.312;9.246;2022-07-26T15:25:21;1.27;;;0.70;;
1753;SDS011;58380;48.312;9.246;2022-07-26T15:27:51;4.57;;;0.60;;
1753;SDS011;58380;48.312;9.246;2022-07-26T15:30:20;2.63;;;0.88;;
1753;SDS011;58380;48.312;9.246;2022-07-26T15:32:48;2.35;;;0.77;;
1753;SDS011;58380;48.312;9.246;2022-07-26T15:35:18;1.55;;;0.70;;
1753;SDS011;58380;48.312;9.246;2022-07-26T15:37:47;4.63;;;0.80;;
1753;SDS011;58380;48.312;9.246;2022-07-26T15:40:18;3.10;;;0.85;;
1753;SDS011;58380;48.312;9.246;2022-07-26T15:42:47;1.23;;;0.60;;
1753;SDS011;58380;48.312;9.246;2022-07-26T15:45:16;1.42;;;0.80;;
1753;SDS011;58380;48.312;9.246;2022-07-26T15:47:45;2.97;;;0.73;;
1753;SDS011;58380;48.312;9.246;2022-07-26T15:50:14;4.32;;;0.68;;
1753;SDS011;58380;48.312;9.246;2022-07-26T15:52:45;2.05;;;0.70;;
1753;SDS011;58380;48.312;9.246;2022-07-26T15:55:18;1.45;;;0.70;;
1753;SDS011;58380;48.312;9.246;2022-07-26T15:57:46;2.63;;;0.65;;
1753;SDS011;58380;48.312;9.246;2022-07-26T16:00:15;2.10;;;0.88;;
1753;SDS011;58380;48.312;9.246;2022-07-26T16:02:45;1.70;;;0.50;;
1753;SDS011;58380;48.312;9.246;2022-07-26T16:05:13;2.28;;;0.70;;
1753;SDS011;58380;48.312;9.246;2022-07-26T16:07:44;2.03;;;0.90;;
1753;SDS011;58380;48.312;9.246;2022-07-26T16:10:14;2.10;;;0.90;;
1753;SDS011;58380;48.312;9.246;2022-07-26T16:12:45;1.80;;;0.80;;
1753;SDS011;58380;48.312;9.246;2022-07-26T16:15:14;2.72;;;0.90;;
1753;SDS011;58380;48.312;9.246;2022-07-26T16:17:43;3.65;;;0.80;;
1753;SDS011;58380;48.312;9.246;2022-07-26T16:20:11;3.33;;;0.75;;
1753;SDS011;58380;48.312;9.246;2022-07-26T16:22:43;1.02;;;0.52;;
1753;SDS011;58380;48.312;9.246;2022-07-26T16:25:12;1.95;;;0.68;;
1753;SDS011;58380;48.312;9.246;2022-07-26T16:27:41;2.47;;;0.80;;
1753;SDS011;58380;48.312;9.246;2022-07-26T16:30:13;1.23;;;0.80;;
1753;SDS011;58380;48.312;9.246;2022-07-26T16:32:42;2.13;;;0.60;;
1753;SDS011;58380;48.312;9.246;2022-07-26T16:35:11;2.45;;;0.80;;
1753;SDS011;58380;48.312;9.246;2022-07-26T16:37:41;1.83;;;0.70;;
1753;SDS011;58380;48.312;9.246;2022-07-26T16:40:10;2.97;;;0.60;;
1753;SDS011;58380;48.312;9.246;2022-07-26T16:42:38;3.83;;;0.50;;
1753;SDS011;58380;48.312;9.246;2022-07-26T16:45:10;2.17;;;0.60;;
1753;SDS011;58380;48.312;9.246;2022-07-26T16:47:38;2.88;;;0.50;;
1753;SDS011;58380;48.312;9.246;2022-07-26T16:50:07;2.85;;;0.90;;
1753;SDS011;58380;48.312;9.246;2022-07-26T16:52:37;1.88;;;0.82;;
1753;SDS011;58380;48.312;9.246;2022-07-26T16:55:06;2.53;;;0.90;;
1753;SDS011;58380;48.312;9.246;2022-07-26T16:57:39;2.08;;;0.60;;
1753;SDS011;58380;48.312;9.246;2022-07-26T17:00:11;1.02;;;0.70;;
1753;SDS011;58380;48.312;9.246;2022-07-26T17:02:43;2.88;;;1.00;;
1753;SDS011;58380;48.312;9.246;2022-07-26T17:05:12;1.48;;;0.70;;
1753;SDS011;58380;48.312;9.246;2022-07-26T17:07:41;1.13;;;0.50;;
1753;SDS011;58380;48.312;9.246;2022-07-26T17:10:10;1.17;;;0.60;;
1753;SDS011;58380;48.312;9.246;2022-07-26T17:12:38;1.90;;;0.80;;
1753;SDS011;58380;48.312;9.246;2022-07-26T17:15:07;1.42;;;0.50;;
1753;SDS011;58380;48.312;9.246;2022-07-26T17:17:39;4.22;;;0.88;;
1753;SDS011;58380;48.312;9.246;2022-07-26T17:20:08;1.10;;;0.60;;
1753;SDS011;58380;48.312;9.246;2022-07-26T17:22:38;0.88;;;0.40;;
1753;SDS011;58380;48.312;9.246;2022-07-26T17:25:06;1.52;;;0.52;;
1753;SDS011;58380;48.312;9.246;2022-07-26T17:27:36;2.78;;;0.60;;
1753;SDS011;58380;48.312;9.246;2022-07-26T17:30:05;3.47;;;0.52;;
1753;SDS011;58380;48.312;9.246;2022-07-26T17:32:37;2.08;;;0.68;;
1753;SDS011;58380;48.312;9.246;2022-07-26T17:35:06;0.82;;;0.50;;
1753;SDS011;58380;48.312;9.246;2022-07-26T17:37:36;1.25;;;0.50;;
1753;SDS011;58380;48.312;9.246;2022-07-26T17:40:05;0.88;;;0.50;;
1753;SDS011;58380;48.312;9.246;2022-07-26T17:42:36;4.25;;;0.85;;
1753;SDS011;58380;48.312;9.246;2022-07-26T17:45:06;1.35;;;0.63;;
1753;SDS011;58380;48.312;9.246;2022-07-26T17:47:38;4.03;;;0.80;;
1753;SDS011;58380;48.312;9.246;2022-07-26T17:50:07;0.60;;;0.40;;
1753;SDS011;58380;48.312;9.246;2022-07-26T17:52:36;3.03;;;0.70;;
1753;SDS011;58380;48.312;9.246;2022-07-26T17:55:06;2.67;;;0.80;;
1753;SDS011;58380;48.312;9.246;2022-07-26T17:57:35;0.90;;;0.55;;
1753;SDS011;58380;48.312;9.246;2022-07-26T18:00:04;3.42;;;0.82;;
1753;SDS011;58380;48.312;9.246;2022-07-26T18:02:34;1.58;;;0.70;;
1753;SDS011;58380;48.312;9.246;2022-07-26T18:05:05;3.40;;;0.60;;
1753;SDS011;58380;48.312;9.246;2022-07-26T18:07:35;1.15;;;0.68;;
1753;SDS011;58380;48.312;9.246;2022-07-26T18:10:04;1.27;;;0.52;;
1753;SDS011;58380;48.312;9.246;2022-07-26T18:12:35;1.00;;;0.57;;
1753;SDS011;58380;48.312;9.246;2022-07-26T18:15:04;4.60;;;0.70;;
1753;SDS011;58380;48.312;9.246;2022-07-26T18:17:34;0.98;;;0.68;;
1753;SDS011;58380;48.312;9.246;2022-07-26T18:20:06;1.08;;;0.60;;
1753;SDS011;58380;48.312;9.246;2022-07-26T18:22:37;4.32;;;0.68;;
1753;SDS011;58380;48.312;9.246;2022-07-26T18:25:06;1.13;;;0.52;;
1753;SDS011;58380;48.312;9.246;2022-07-26T18:27:36;0.93;;;0.50;;
1753;SDS011;58380;48.312;9.246;2022-07-26T18:30:05;1.75;;;0.77;;
1753;SDS011;58380;48.312;9.246;2022-07-26T18:32:35;1.45;;;0.63;;
1753;SDS011;58380;48.312;9.246;2022-07-26T18:35:06;0.82;;;0.68;;
1753;SDS011;58380;48.312;9.246;2022-07-26T18:37:35;1.10;;;0.50;;
1753;SDS011;58380;48.312;9.246;2022-07-26T18:40:04;1.85;;;0.60;;
1753;SDS011;58380;48.312;9.246;2022-07-26T18:42:35;0.85;;;0.60;;
1753;SDS011;58380;48.312;9.246;2022-07-26T18:45:03;4.03;;;0.80;;
1753;SDS011;58380;48.312;9.246;2022-07-26T18:47:34;4.00;;;0.70;;
1753;SDS011;58380;48.312;9.246;2022-07-26T18:50:06;4.07;;;0.65;;
1753;SDS011;58380;48.312;9.246;2022-07-26T18:52:37;2.35;;;0.60;;
1753;SDS011;58380;48.312;9.246;2022-07-26T18:55:06;2.40;;;0.68;;
1753;SDS011;58380;48.312;9.246;2022-07-26T18:57:38;4.53;;;0.90;;
1753;SDS011;58380;48.312;9.246;2022-07-26T19:00:10;2.50;;;0.77;;
1753;SDS011;58380;48.312;9.246;2022-07-26T19:02:42;0.98;;;0.60;;
1753;SDS011;58380;48.312;9.246;2022-07-26T19:05:14;1.30;;;0.70;;
1753;SDS011;58380;48.312;9.246;2022-07-26T19:07:43;2.97;;;0.75;;
1753;SDS011;58380;48.312;9.246;2022-07-26T19:10:13;4.28;;;0.80;;
1753;SDS011;58380;48.312;9.246;2022-07-26T19:12:41;3.15;;;0.82;;
1753;SDS011;58380;48.312;9.246;2022-07-26T19:15:12;1.60;;;0.93;;
1753;SDS011;58380;48.312;9.246;2022-07-26T19:17:42;2.10;;;0.70;;
1753;SDS011;58380;48.312;9.246;2022-07-26T19:20:11;3.55;;;0.75;;
1753;SDS011;58380;48.312;9.246;2022-07-26T19:22:43;2.95;;;0.70;;
1753;SDS011;58380;48.312;9.246;2022-07-26T19:25:12;0.93;;;0.52;;
1753;SDS011;58380;48.312;9.246;2022-07-26T19:27:41;1.50;;;0.70;;
1753;SDS011;58380;48.312;9.246;2022-07-26T19:30:11;0.88;;;0.60;;
1753;SDS011;58380;48.312;9.246;2022-07-26T19:32:40;3.80;;;1.05;;
1753;SDS011;58380;48.312;9.246;2022-07-26T19:35:09;1.60;;;0.73;;
1753;SDS011;58380;48.312;9.246;2022-07-26T19:37:40;1.98;;;0.50;;
1753;SDS011;58380;48.312;9.246;2022-07-26T19:40:12;2.30;;;1.08;;
1753;SDS011;58380;48.312;9.246;2022-07-26T19:42:40;2.53;;;0.90;;
1753;SDS011;58380;48.312;9.246;2022-07-26T19:45:10;1.98;;;0.60;;
1753;SDS011;58380;48.312;9.246;2022-07-26T19:47:39;1.75;;;0.77;;
1753;SDS011;58380;48.312;9.246;2022-07-26T19:50:08;2.33;;;0.80;;
1753;SDS011;58380;48.312;9.246;2022-07-26T19:52:40;3.85;;;0.77;;
1753;SDS011;58380;48.312;9.246;2022-07-26T19:55:08;1.52;;;0.75;;
1753;SDS011;58380;48.312;9.246;2022-07-26T19:57:37;1.83;;;0.65;;
1753;SDS011;58380;48.312;9.246;2022-07-26T20:00:07;2.42;;;0.73;;
1753;SDS011;58380;48.312;9.246;2022-07-26T20:02:38;1.98;;;0.70;;
1753;SDS011;58380;48.312;9.246;2022-07-26T20:05:07;1.73;;;0.77;;
1753;SDS011;58380;48.312;9.246;2022-07-26T20:07:40;3.28;;;0.80;;
1753;SDS011;58380;48.312;9.246;2022-07-26T20:10:09;2.72;;;0.80;;
1753;SDS011;58380;48.312;9.246;2022-07-26T20:12:38;1.05;;;0.50;;
1753;SDS011;58380;48.312;9.246;2022-07-26T20:15:07;2.40;;;0.75;;
1753;SDS011;58380;48.312;9.246;2022-07-26T20:17:38;1.23;;;0.68;;
1753;SDS011;58380;48.312;9.246;2022-07-26T20:20:07;2.50;;;0.85;;
1753;SDS011;58380;48.312;9.246;2022-07-26T20:22:40;3.25;;;0.85;;
1753;SDS011;58380;48.312;9.246;2022-07-26T20:25:09;4.07;;;0.75;;
1753;SDS011;58380;48.312;9.246;2022-07-26T20:27:38;2.25;;;0.98;;
1753;SDS011;58380;48.312;9.246;2022-07-26T20:30:07;2.00;;;0.73;;
1753;SDS011;58380;48.312;9.246;2022-07-26T20:32:37;3.17;;;0.65;;
1753;SDS011;58380;48.312;9.246;2022-07-26T20:35:06;2.55;;;0.60;;
1753;SDS011;58380;48.312;9.246;2022-07-26T20:37:35;5.95;;;0.70;;
1753;SDS011;58380;48.312;9.246;2022-07-26T20:40:08;1.83;;;0.60;;
1753;SDS011;58380;48.312;9.246;2022-07-26T20:42:38;2.35;;;0.85;;
1753;SDS011;58380;48.312;9.246;2022-07-26T20:45:07;1.25;;;0.60;;
1753;SDS011;58380;48.312;9.246;2022-07-26T20:47:37;2.92;;;0.77;;
1753;SDS011;58380;48.312;9.246;2022-07-26T20:50:07;1.70;;;0.80;;
1753;SDS011;58380;48.312;9.246;2022-07-26T20:52:36;2.47;;;0.80;;
1753;SDS011;58380;48.312;9.246;2022-07-26T20:55:09;1.33;;;0.52;;
1753;SDS011;58380;48.312;9.246;2022-07-26T20:57:38;1.52;;;0.73;;
1753;SDS011;58380;48.312;9.246;2022-07-26T21:00:08;1.33;;;0.70;;
1753;SDS011;58380;48.312;9.246;2022-07-26T21:02:38;4.22;;;0.60;;
1753;SDS011;58380;48.312;9.246;2022-07-26T21:05:07;0.75;;;0.60;;
1753;SDS011;58380;48.312;9.246;2022-07-26T21:07:37;2.22;;;0.90;;
1753;SDS011;58380;48.312;9.246;2022-07-26T21:10:09;1.55;;;0.65;;
1753;SDS011;58380;48.312;9.246;2022-07-26T21:12:38;1.33;;;0.80;;
1753;SDS011;58380;48.312;9.246;2022-07-26T21:15:08;1.52;;;0.90;;
1753;SDS011;58380;48.312;9.246;2022-07-26T21:17:37;1.98;;;1.02;;
1753;SDS011;58380;48.312;9.246;2022-07-26T21:20:07;2.03;;;0.70;;
1753;SDS011;58380;48.312;9.246;2022-07-26T21:22:36;0.98;;;0.63;;
1753;SDS011;58380;48.312;9.246;2022-07-26T21:25:05;3.10;;;0.70;;
1753;SDS011;58380;48.312;9.246;2022-07-26T21:27:37;4.82;;;1.02;;
1753;SDS011;58380;48.312;9.246;2022-07-26T21:30:07;2.55;;;0.70;;
1753;SDS011;58380;48.312;9.246;2022-07-26T21:32:38;2.75;;;0.77;;
1753;SDS011;58380;48.312;9.246;2022-07-26T21:35:07;1.73;;;0.82;;
1753;SDS011;58380;48.312;9.246;2022-07-26T21:37:36;1.83;;;0.88;;
1753;SDS011;58380;48.312;9.246;2022-07-26T21:40:05;0.82;;;0.70;;
1753;SDS011;58380;48.312;9.246;2022-07-26T21:42:38;1.70;;;0.70;;
1753;SDS011;58380;48.312;9.246;2022-07-26T21:45:08;2.25;;;0.77;;
1753;SDS011;58380;48.312;9.246;2022-07-26T21:47:37;2.13;;;0.93;;
1753;SDS011;58380;48.312;9.246;2022-07-26T21:50:06;1.33;;;0.60;;
1753;SDS011;58380;48.312;9.246;2022-07-26T21:52:36;3.60;;;0.60;;
1753;SDS011;58380;48.312;9.246;2022-07-26T21:55:05;3.17;;;0.90;;
1753;SDS011;58380;48.312;9.246;2022-07-26T21:57:37;0.98;;;0.65;;
1753;SDS011;58380;48.312;9.246;2022-07-26T22:00:09;2.75;;;0.70;;
1753;SDS011;58380;48.312;9.246;2022-07-26T22:02:40;1.98;;;0.80;;
1753;SDS011;58380;48.312;9.246;2022-07-26T22:05:08;1.30;;;0.80;;
1753;SDS011;58380;48.312;9.246;2022-07-26T22:07:49;1.92;;;0.80;;
1753;SDS011;58380;48.312;9.246;2022-07-26T22:10:21;1.35;;;0.90;;
1753;SDS011;58380;48.312;9.246;2022-07-26T22:12:50;1.20;;;0.70;;
1753;SDS011;58380;48.312;9.246;2022-07-26T22:15:20;1.38;;;0.70;;
1753;SDS011;58380;48.312;9.246;2022-07-26T22:17:49;2.50;;;0.80;;
1753;SDS011;58380;48.312;9.246;2022-07-26T22:20:19;1.00;;;0.80;;
1753;SDS011;58380;48.312;9.246;2022-07-26T22:22:48;1.63;;;0.88;;
1753;SDS011;58380;48.312;9.246;2022-07-26T22:25:17;1.15;;;0.80;;
1753;SDS011;58380;48.312;9.246;2022-07-26T22:27:48;1.77;;;0.80;;
1753;SDS011;58380;48.312;9.246;2022-07-26T22:30:17;2.92;;;0.90;;